createdAt,value
2024-05-09T00:00:15.473Z,101267.16
2024-05-09T00:02:48.631Z,101271.50
2024-05-09T00:05:19.554Z,101275.88
2024-05-09T00:07:50.121Z,101268.91
2024-05-09T00:10:32.602Z,101262.81
2024-05-09T00:13:06.756Z,101274.13
2024-05-09T00:15:37.511Z,101268.03
2024-05-09T00:18:08.768Z,101274.09
2024-05-09T00:20:41.204Z,101275.84
2024-05-09T00:23:13.717Z,101274.13
2024-05-09T00:25:47.502Z,101281.06
2024-05-09T00:28:18.051Z,101277.59
2024-05-09T00:30:48.487Z,101278.47
2024-05-09T00:33:19.171Z,101277.59
2024-05-09T00:35:50.646Z,101269.78
2024-05-09T00:38:21.241Z,101271.53
2024-05-09T00:40:54.367Z,101270.63
2024-05-09T00:43:24.830Z,101269.78
2024-05-09T00:45:56.957Z,101265.41
2024-05-09T00:48:27.685Z,101263.69
2024-05-09T00:50:58.657Z,101266.28
2024-05-09T00:53:29.243Z,101268.88
2024-05-09T00:56:02.489Z,101257.59
2024-05-09T00:58:33.269Z,101264.53
2024-05-09T01:01:05.057Z,101261.94
2024-05-09T01:03:35.762Z,101259.31
2024-05-09T01:06:06.481Z,101266.28
2024-05-09T01:08:37.158Z,101260.19
2024-05-09T01:11:10.555Z,101266.25
2024-05-09T01:13:41.013Z,101267.16
2024-05-09T01:16:11.469Z,101268.00
2024-05-09T01:18:41.946Z,101263.66
2024-05-09T01:21:12.525Z,101268.00
2024-05-09T01:23:45.632Z,101256.72
2024-05-09T01:26:16.160Z,101267.13
2024-05-09T01:28:46.628Z,101274.94
2024-05-09T01:31:17.061Z,101255.84
2024-05-09T01:33:47.604Z,101261.91
2024-05-09T01:36:18.136Z,101269.69
2024-05-09T01:38:51.181Z,101262.78
2024-05-09T01:41:21.687Z,101258.44
2024-05-09T01:43:52.264Z,101261.88
2024-05-09T01:46:22.741Z,101249.75
2024-05-09T01:48:53.194Z,101253.22
2024-05-09T01:51:23.736Z,101252.34
2024-05-09T01:53:58.590Z,101242.78
2024-05-09T01:56:29.090Z,101244.50
2024-05-09T01:58:59.559Z,101245.34
2024-05-09T02:01:30.049Z,101241.03
2024-05-09T02:04:20.530Z,101240.13
2024-05-09T02:06:51.164Z,101247.94
2024-05-09T02:09:24.180Z,101240.97
2024-05-09T02:11:54.784Z,101244.44
2024-05-09T02:14:25.380Z,101253.97
2024-05-09T02:16:55.912Z,101254.81
2024-05-09T02:19:26.439Z,101259.13
2024-05-09T02:21:56.900Z,101257.38
2024-05-09T02:24:29.917Z,101265.22
2024-05-09T02:27:00.363Z,101257.41
2024-05-09T02:29:31.011Z,101264.31
2024-05-09T02:32:01.639Z,101261.72
2024-05-09T02:34:32.402Z,101255.63
2024-05-09T02:37:02.965Z,101256.50
2024-05-09T02:39:33.722Z,101262.53
2024-05-09T02:42:04.110Z,101259.91
2024-05-09T02:44:31.978Z,101255.56
2024-05-09T02:47:02.479Z,101260.72
2024-05-09T02:49:30.416Z,101254.66
2024-05-09T02:52:00.938Z,101264.22
2024-05-09T02:54:28.908Z,101259.88
2024-05-09T02:57:01.984Z,101249.41
2024-05-09T02:59:29.815Z,101253.75
2024-05-09T03:02:00.383Z,101255.50
2024-05-09T03:04:28.285Z,101247.69
2024-05-09T03:06:58.712Z,101258.13
2024-05-09T03:09:26.604Z,101252.06
2024-05-09T03:11:57.193Z,101251.19
2024-05-09T03:14:28.487Z,101250.34
2024-05-09T03:16:59.101Z,101263.34
2024-05-09T03:19:26.952Z,101258.97
2024-05-09T03:21:57.416Z,101257.28
2024-05-09T03:24:25.205Z,101255.53
2024-05-09T03:26:55.600Z,101262.47
2024-05-09T03:29:23.387Z,101265.03
2024-05-09T03:31:56.572Z,101260.69
2024-05-09T03:34:24.443Z,101271.09
2024-05-09T03:36:54.980Z,101266.78
2024-05-09T03:39:25.394Z,101271.94
2024-05-09T03:41:55.799Z,101273.69
2024-05-09T03:44:26.319Z,101264.06
2024-05-09T03:46:56.886Z,101271.84
2024-05-09T03:49:27.421Z,101266.63
2024-05-09T03:51:55.346Z,101267.53
2024-05-09T03:54:25.733Z,101265.75
2024-05-09T03:56:54.384Z,101267.47
2024-05-09T03:59:24.861Z,101267.47
2024-05-09T04:01:55.504Z,101267.44
2024-05-09T04:04:26.013Z,101269.16
2024-05-09T04:06:53.830Z,101270.91
2024-05-09T04:09:24.283Z,101274.38
2024-05-09T04:11:52.309Z,101269.19
2024-05-09T04:14:22.964Z,101265.75
2024-05-09T04:16:51.980Z,101277.00
2024-05-09T04:19:25.142Z,101265.75
2024-05-09T04:21:53.008Z,101267.53
2024-05-09T04:24:23.434Z,101267.66
2024-05-09T04:26:51.188Z,101272.06
2024-05-09T04:29:21.654Z,101277.31
2024-05-09T04:31:49.508Z,101278.22
2024-05-09T04:34:20.069Z,101279.06
2024-05-09T04:36:50.706Z,101278.25
2024-05-09T04:39:21.114Z,101280.03
2024-05-09T04:41:48.915Z,101275.78
2024-05-09T04:44:19.415Z,101286.25
2024-05-09T04:46:48.060Z,101285.41
2024-05-09T04:49:18.770Z,101272.34
2024-05-09T04:51:49.281Z,101280.16
2024-05-09T04:54:30.001Z,101287.13
2024-05-09T04:57:03.886Z,101281.06
2024-05-09T04:59:34.489Z,101286.28
2024-05-09T05:02:02.929Z,101281.06
2024-05-09T05:04:33.651Z,101285.38
2024-05-09T05:07:04.261Z,101282.72
2024-05-09T05:09:34.887Z,101287.00
2024-05-09T05:12:23.142Z,101284.38
2024-05-09T05:14:53.665Z,101285.25
2024-05-09T05:17:24.214Z,101284.31
2024-05-09T05:19:52.312Z,101289.47
2024-05-09T05:22:25.404Z,101284.09
2024-05-09T05:24:53.216Z,101291.84
2024-05-09T05:27:23.588Z,101292.50
2024-05-09T05:29:51.399Z,101289.06
2024-05-09T05:32:22.077Z,101289.00
2024-05-09T05:34:50.067Z,101290.66
2024-05-09T05:37:20.493Z,101294.97
2024-05-09T05:39:50.893Z,101294.94
2024-05-09T05:42:21.314Z,101300.16
2024-05-09T05:44:49.162Z,101311.50
2024-05-09T05:47:19.810Z,101312.47
2024-05-09T05:49:47.684Z,101307.13
2024-05-09T05:52:18.330Z,101304.53
2024-05-09T05:54:48.511Z,101313.25
2024-05-09T05:57:22.045Z,101312.31
2024-05-09T05:59:52.412Z,101321.69
2024-05-09T06:02:20.539Z,101314.63
2024-05-09T06:04:51.045Z,101314.63
2024-05-09T06:07:18.919Z,101316.16
2024-05-09T06:09:50.468Z,101310.09
2024-05-09T06:12:21.054Z,101318.72
2024-05-09T06:14:51.558Z,101313.31
2024-05-09T06:17:19.515Z,101309.09
2024-05-09T06:19:50.160Z,101313.22
2024-05-09T06:22:18.002Z,101317.44
2024-05-09T06:24:48.514Z,101303.31
2024-05-09T06:27:16.314Z,101306.88
2024-05-09T06:29:49.514Z,101314.25
2024-05-09T06:32:17.348Z,101314.38
2024-05-09T06:34:49.173Z,101322.06
2024-05-09T06:37:17.954Z,101321.72
2024-05-09T06:39:49.104Z,101317.75
2024-05-09T06:42:16.884Z,101314.84
2024-05-09T06:44:49.927Z,101311.75
2024-05-09T06:47:19.499Z,101309.13
2024-05-09T06:49:50.047Z,101314.78
2024-05-09T06:52:19.424Z,101314.47
2024-05-09T06:54:49.887Z,101313.06
2024-05-09T06:57:17.702Z,101317.44
2024-05-09T06:59:50.722Z,101316.63
2024-05-09T07:02:18.683Z,101322.28
2024-05-09T07:04:49.364Z,101325.56
2024-05-09T07:07:17.356Z,101327.56
2024-05-09T07:09:47.784Z,101322.03
2024-05-09T07:12:15.819Z,101320.41
2024-05-09T07:14:48.967Z,101325.72
2024-05-09T07:17:17.377Z,101325.69
2024-05-09T07:19:48.211Z,101321.81
2024-05-09T07:22:16.183Z,101322.97
2024-05-09T07:24:46.618Z,101318.13
2024-05-09T07:27:14.616Z,101324.66
2024-05-09T07:29:45.181Z,101310.84
2024-05-09T07:32:15.742Z,101312.28
2024-05-09T07:34:46.281Z,101317.00
2024-05-09T07:37:14.580Z,101315.22
2024-05-09T07:39:45.173Z,101316.53
2024-05-09T07:42:13.027Z,101308.94
2024-05-09T07:44:43.478Z,101299.81
2024-05-09T07:48:27.533Z,101301.09
2024-05-09T07:52:00.971Z,101303.91
2024-05-09T07:53:35.395Z,101304.19
2024-05-09T07:55:43.003Z,101305.28
2024-05-09T07:58:10.958Z,101300.63
2024-05-09T08:00:41.635Z,101297.31
2024-05-09T08:03:10.393Z,101296.50
2024-05-09T08:05:43.576Z,101300.25
2024-05-09T08:08:11.679Z,101295.34
2024-05-09T08:10:42.218Z,101299.44
2024-05-09T08:13:10.239Z,101297.31
2024-05-09T08:15:40.898Z,101297.94
2024-05-09T08:18:09.514Z,101310.91
2024-05-09T08:20:44.476Z,101300.13
2024-05-09T08:23:12.313Z,101294.47
2024-05-09T08:25:45.027Z,101306.06
2024-05-09T08:28:13.162Z,101299.47
2024-05-09T08:30:44.302Z,101296.84
2024-05-09T08:33:15.118Z,101292.97
2024-05-09T08:35:45.674Z,101289.25
2024-05-09T08:38:16.175Z,101287.19
2024-05-09T08:40:44.238Z,101282.91
2024-05-09T08:43:15.049Z,101285.44
2024-05-09T08:45:44.730Z,101273.38
2024-05-09T08:48:16.916Z,101280.31
2024-05-09T08:50:51.088Z,101279.78
2024-05-09T08:53:19.452Z,101282.63
2024-05-09T08:55:52.284Z,101276.13
2024-05-09T08:58:20.444Z,101279.09
2024-05-09T09:00:52.264Z,101274.78
2024-05-09T09:03:24.534Z,101272.03
2024-05-09T09:06:02.122Z,101278.88
2024-05-09T09:08:29.892Z,101269.72
2024-05-09T09:11:01.710Z,101268.50
2024-05-09T09:13:29.897Z,101263.81
2024-05-09T09:16:01.321Z,101268.41
2024-05-09T09:18:30.407Z,101271.69
2024-05-09T09:21:03.864Z,101268.88
2024-05-09T09:23:31.667Z,101264.13
2024-05-09T11:43:07.685Z,101157.81
2024-05-09T11:45:36.103Z,101158.47
2024-05-09T11:48:07.673Z,101149.34
2024-05-09T11:50:36.321Z,101157.88
2024-05-09T11:53:07.058Z,101156.03
2024-05-09T11:55:36.594Z,101146.03
2024-05-09T11:58:12.761Z,101140.44
2024-05-09T12:00:40.856Z,101137.03
2024-05-09T12:03:11.405Z,101134.47
2024-05-09T12:05:39.424Z,101134.44
2024-05-09T12:08:10.835Z,101135.41
2024-05-09T12:10:39.109Z,101131.97
2024-05-09T12:13:12.774Z,101124.41
2024-05-09T12:15:40.886Z,101119.19
2024-05-09T12:18:11.462Z,101124.06
2024-05-09T12:20:40.445Z,101118.22
2024-05-09T12:23:11.614Z,101126.03
2024-05-09T12:25:40.481Z,101130.31
2024-05-09T12:28:14.311Z,101121.69
2024-05-09T12:30:42.259Z,101120.75
2024-05-09T12:33:14.279Z,101119.13
2024-05-09T12:35:46.478Z,101114.88
2024-05-09T12:38:18.035Z,101114.00
2024-05-09T12:40:45.908Z,101114.66
2024-05-09T12:43:19.834Z,101118.59
2024-05-09T12:45:47.834Z,101107.22
2024-05-09T12:48:18.445Z,101110.66
2024-05-09T12:50:46.452Z,101105.59
2024-05-09T12:53:17.047Z,101101.97
2024-05-09T12:55:53.263Z,101097.41
2024-05-09T12:58:30.259Z,101098.66
2024-05-09T13:00:58.338Z,101089.56
2024-05-09T13:03:28.965Z,101089.44
2024-05-09T13:05:57.315Z,101085.91
2024-05-09T13:08:27.981Z,101081.41
2024-05-09T13:10:56.033Z,101071.56
2024-05-09T13:13:29.285Z,101079.47
2024-05-09T13:15:57.150Z,101071.31
2024-05-09T13:18:27.779Z,101077.50
2024-05-09T13:20:55.693Z,101080.59
2024-05-09T13:23:26.385Z,101063.16
2024-05-09T13:25:54.375Z,101059.47
2024-05-09T13:28:25.089Z,101060.38
2024-05-09T13:30:55.636Z,101054.38
2024-05-09T13:33:26.212Z,101049.25
2024-05-09T13:35:54.317Z,101039.22
2024-05-09T13:38:24.891Z,101042.53
2024-05-09T13:40:52.974Z,101032.19
2024-05-09T13:43:24.130Z,101032.72
2024-05-09T13:45:56.365Z,101048.28
2024-05-09T13:48:27.159Z,101039.06
2024-05-09T13:50:55.210Z,101043.66
2024-05-09T13:53:25.679Z,101027.13
2024-05-09T13:55:53.525Z,101030.00
2024-05-09T13:58:24.480Z,101032.47
2024-05-09T14:00:55.065Z,101028.31
2024-05-09T14:03:27.091Z,101029.56
2024-05-09T14:05:55.178Z,101026.59
2024-05-09T14:08:26.080Z,101016.94
2024-05-09T14:10:54.246Z,101012.28
2024-05-09T14:13:25.164Z,101015.59
2024-05-09T14:15:55.906Z,101016.00
2024-05-09T14:18:26.618Z,101010.56
2024-05-09T14:20:54.534Z,101009.38
2024-05-09T14:23:26.416Z,101005.50
2024-05-09T14:25:54.270Z,101000.00
2024-05-09T14:28:27.111Z,100992.34
2024-05-09T14:30:57.704Z,100990.03
2024-05-09T14:33:30.604Z,100985.88
2024-05-09T14:35:58.576Z,100989.22
2024-05-09T14:38:30.466Z,100983.59
2024-05-09T14:40:59.442Z,100983.09
2024-05-09T14:43:29.988Z,100977.22
2024-05-09T14:46:00.603Z,100977.13
2024-05-09T14:48:31.583Z,100977.91
2024-05-09T14:50:59.504Z,100986.44
2024-05-09T14:53:29.974Z,100975.38
2024-05-09T14:55:58.077Z,100974.94
2024-05-09T14:58:29.182Z,100965.72
2024-05-09T15:00:59.879Z,100960.72
2024-05-09T15:03:30.630Z,100970.59
2024-05-09T15:05:59.336Z,100968.66
2024-05-09T15:08:30.019Z,100952.75
2024-05-09T15:10:57.989Z,100955.25
2024-05-09T15:13:29.125Z,100952.81
2024-05-09T15:15:59.749Z,100951.53
2024-05-09T15:18:30.783Z,100948.91
2024-05-09T15:20:58.967Z,100951.34
2024-05-09T15:23:29.660Z,100941.25
2024-05-09T15:25:57.652Z,100949.31
2024-05-09T15:28:28.168Z,100947.72
2024-05-09T15:30:56.093Z,100938.72
2024-05-09T15:33:29.898Z,100935.41
2024-05-09T15:35:57.855Z,100927.28
2024-05-09T15:38:28.945Z,100932.22
2024-05-09T15:41:00.324Z,100927.28
2024-05-09T15:43:28.476Z,100927.94
2024-05-09T15:45:59.063Z,100925.09
2024-05-09T15:56:12.144Z,100918.53
2024-05-09T16:01:26.850Z,100915.13
2024-05-09T16:03:54.842Z,100913.34
2024-05-09T16:06:25.912Z,100917.41
2024-05-09T16:08:53.862Z,100918.47
2024-05-09T16:11:24.307Z,100915.66
2024-05-09T16:14:13.837Z,100907.84
2024-05-09T16:16:47.031Z,100911.44
2024-05-09T16:19:15.965Z,100905.06
2024-05-09T16:21:46.566Z,100910.09
2024-05-09T16:24:14.594Z,100909.75
2024-05-09T16:26:46.109Z,100908.31
2024-05-09T16:29:14.041Z,100905.91
2024-05-09T16:31:47.313Z,100906.03
2024-05-09T16:34:18.300Z,100901.78
2024-05-09T16:36:46.403Z,100901.59
2024-05-09T16:39:16.919Z,100904.94
2024-05-09T16:41:44.887Z,100905.06
2024-05-09T16:44:15.413Z,100902.25
2024-05-09T16:46:45.896Z,100896.91
2024-05-09T16:49:16.828Z,100893.53
2024-05-09T16:51:44.936Z,100903.41
2024-05-09T16:54:15.718Z,100897.16
2024-05-09T16:56:43.711Z,100896.50
2024-05-09T16:59:14.550Z,100896.81
2024-05-09T17:01:45.246Z,100903.72
2024-05-09T17:04:16.100Z,100897.69
2024-05-09T17:06:44.257Z,100898.59
2024-05-09T17:09:18.028Z,100898.34
2024-05-09T17:11:47.329Z,100895.84
2024-05-09T17:14:18.071Z,100894.06
2024-05-09T17:16:51.168Z,100893.94
2024-05-09T17:19:21.830Z,100891.78
2024-05-09T17:21:49.825Z,100895.94
2024-05-09T17:24:20.314Z,100893.44
2024-05-09T17:26:48.657Z,100891.66
2024-05-09T17:29:19.230Z,100885.56
2024-05-09T17:31:49.705Z,100891.66
2024-05-09T17:34:20.476Z,100890.47
2024-05-09T17:36:48.418Z,100883.59
2024-05-09T17:39:19.029Z,100887.84
2024-05-09T17:41:46.830Z,100892.34
2024-05-09T17:44:17.303Z,100895.97
2024-05-09T17:46:45.166Z,100897.03
2024-05-09T17:49:18.412Z,100885.28
2024-05-09T17:51:52.867Z,100898.69
2024-05-09T17:54:23.580Z,100890.28
2024-05-09T17:56:51.465Z,100888.88
2024-05-09T17:59:21.945Z,100890.06
2024-05-09T18:01:49.999Z,100891.13
2024-05-09T18:04:23.818Z,100887.81
2024-05-09T18:06:51.714Z,100897.53
2024-05-09T18:09:22.236Z,100891.41
2024-05-09T18:11:50.249Z,100895.84
2024-05-09T18:14:20.714Z,100886.28
2024-05-09T18:16:48.550Z,100894.34
2024-05-09T18:19:19.204Z,100894.56
2024-05-09T18:21:49.787Z,100892.03
2024-05-09T18:24:22.074Z,100897.53
2024-05-09T18:26:50.042Z,100895.84
2024-05-09T18:29:22.275Z,100894.84
2024-05-09T18:31:50.278Z,100901.03
2024-05-09T18:34:20.853Z,100893.41
2024-05-09T18:36:51.650Z,100897.84
2024-05-09T18:39:22.197Z,100900.28
2024-05-09T18:41:50.081Z,100898.69
2024-05-09T18:44:20.828Z,100899.06
2024-05-09T18:46:48.680Z,100897.53
2024-05-09T18:49:19.463Z,100896.00
2024-05-09T18:51:47.594Z,100898.00
2024-05-09T18:54:20.767Z,100893.66
2024-05-09T18:56:48.620Z,100900.69
2024-05-09T18:59:19.247Z,100899.06
2024-05-09T19:01:47.109Z,100905.22
2024-05-09T19:04:18.671Z,100898.63
2024-05-09T19:06:47.133Z,100891.59
2024-05-09T19:09:20.243Z,100902.41
2024-05-09T19:11:48.145Z,100908.56
2024-05-09T19:14:19.365Z,100910.59
2024-05-09T19:16:47.296Z,100909.81
2024-05-09T19:19:17.985Z,100910.81
2024-05-09T19:21:45.895Z,100907.38
2024-05-09T19:24:19.154Z,100909.44
2024-05-09T19:26:46.958Z,100914.19
2024-05-09T19:29:17.440Z,100920.63
2024-05-09T19:31:47.908Z,100915.50
2024-05-09T19:34:16.208Z,100915.78
2024-05-09T19:36:46.742Z,100925.63
2024-05-09T19:39:17.394Z,100919.72
2024-05-09T19:41:47.827Z,100916.34
2024-05-09T19:44:15.763Z,100921.88
2024-05-09T19:46:46.279Z,100924.69
2024-05-09T19:49:14.348Z,100923.03
2024-05-09T19:51:44.862Z,100927.53
2024-05-09T19:54:12.730Z,100932.84
2024-05-09T19:56:46.395Z,100928.47
2024-05-09T19:59:14.270Z,100928.44
2024-05-09T20:01:44.950Z,100931.16
2024-05-09T20:04:13.071Z,100928.56
2024-05-09T20:06:44.540Z,100925.09
2024-05-09T20:09:12.349Z,100922.50
2024-05-09T20:11:45.466Z,100926.06
2024-05-09T20:14:13.362Z,100927.81
2024-05-09T20:16:43.843Z,100933.16
2024-05-09T20:19:11.821Z,100929.72
2024-05-09T20:21:45.390Z,100933.38
2024-05-09T20:24:13.231Z,100922.94
2024-05-09T20:26:46.350Z,100930.06
2024-05-09T20:29:14.246Z,100927.53
2024-05-09T20:31:45.018Z,100933.03
2024-05-09T20:34:15.545Z,100931.53
2024-05-09T20:36:43.410Z,100933.41
2024-05-09T20:39:13.982Z,100931.03
2024-05-09T20:41:44.798Z,100929.47
2024-05-09T20:44:15.431Z,100927.91
2024-05-09T20:46:43.281Z,100927.16
2024-05-09T20:49:13.874Z,100936.00
2024-05-09T20:51:41.875Z,100936.06
2024-05-09T20:54:12.419Z,100940.50
2024-05-09T20:56:40.283Z,100934.44
2024-05-09T20:59:14.010Z,100937.06
2024-05-09T21:01:47.120Z,100942.38
2024-05-09T21:04:19.234Z,100934.75
2024-05-09T21:06:47.326Z,100941.75
2024-05-09T21:09:18.014Z,100938.44
2024-05-09T21:11:45.948Z,100937.66
2024-05-09T21:14:19.056Z,100945.72
2024-05-09T21:16:47.104Z,100944.97
2024-05-09T21:19:17.708Z,100950.38
2024-05-09T21:21:45.872Z,100944.41
2024-05-09T21:24:16.314Z,100940.16
2024-05-09T21:26:44.589Z,100939.34
2024-05-09T21:29:15.022Z,100941.09
2024-05-09T21:31:45.576Z,100940.25
2024-05-09T21:34:16.136Z,100943.06
2024-05-09T21:36:44.288Z,100939.69
2024-05-09T21:39:14.809Z,100940.66
2024-05-09T21:41:42.784Z,100935.38
2024-05-09T21:44:13.378Z,100943.41
2024-05-09T21:46:41.340Z,100937.41
2024-05-09T21:49:17.284Z,100941.91
2024-05-09T21:51:45.424Z,100942.81
2024-05-09T21:54:15.886Z,100932.44
2024-05-09T21:56:44.022Z,100937.81
2024-05-09T21:59:14.516Z,100943.16
2024-05-09T22:01:42.411Z,100939.81
2024-05-09T22:04:15.624Z,100944.31
2024-05-09T22:06:43.710Z,100936.53
2024-05-09T22:09:14.406Z,100938.34
2024-05-09T22:11:42.349Z,100946.28
2024-05-09T22:14:13.096Z,100948.22
2024-05-09T22:16:41.171Z,100945.69
2024-05-09T22:19:14.339Z,100938.75
2024-05-09T22:21:42.249Z,100934.53
2024-05-09T22:24:12.716Z,100944.34
2024-05-09T22:26:40.596Z,100936.59
2024-05-09T22:29:11.022Z,100937.75
2024-05-09T22:31:38.849Z,100944.84
2024-05-09T22:34:09.440Z,100938.94
2024-05-09T22:36:40.002Z,100940.06
2024-05-09T22:39:10.532Z,100940.09
2024-05-09T22:41:40.317Z,100938.38
2024-05-09T22:44:10.759Z,100935.88
2024-05-09T22:46:38.566Z,100940.38
2024-05-09T22:49:09.558Z,100941.41
2024-05-09T22:51:40.066Z,100938.78
2024-05-09T22:54:10.535Z,100932.69
2024-05-09T22:56:38.330Z,100933.59
2024-05-09T22:59:09.778Z,100937.13
2024-05-09T23:01:37.711Z,100939.88
2024-05-09T23:04:08.357Z,100925.06
2024-05-09T23:06:40.043Z,100928.63
2024-05-09T23:09:12.126Z,100926.78
2024-05-09T23:11:41.551Z,100933.69
2024-05-09T23:14:11.943Z,100931.81
2024-05-09T23:16:39.782Z,100932.66
2024-05-09T23:19:10.244Z,100926.44
2024-05-09T23:21:41.888Z,100922.84
2024-05-09T23:24:12.389Z,100928.06
2024-05-09T23:26:43.228Z,100917.66
2024-05-09T23:29:13.705Z,100927.16
2024-05-09T23:31:41.663Z,100921.16
2024-05-09T23:34:12.242Z,100922.09
2024-05-09T23:36:42.877Z,100927.31
2024-05-09T23:39:13.311Z,100921.22
2024-05-09T23:41:41.184Z,100921.19
2024-05-09T23:44:12.126Z,100921.25
2024-05-09T23:46:42.666Z,100917.84
2024-05-09T23:49:11.289Z,100912.59
2024-05-09T23:51:44.602Z,100917.84
2024-05-09T23:54:12.425Z,100921.44
2024-05-09T23:56:42.833Z,100912.91
2024-05-09T23:59:10.764Z,100913.94
